createdAt,value
2023-01-06T00:00:36.778Z,1.55
2023-01-06T00:03:04.006Z,1.61
2023-01-06T00:05:30.946Z,1.62
2023-01-06T00:07:58.125Z,1.52
2023-01-06T00:10:25.266Z,0.79
2023-01-06T00:12:52.263Z,0.75
2023-01-06T00:15:19.475Z,1.05
2023-01-06T00:17:46.567Z,0.96
2023-01-06T00:20:13.849Z,0.36
2023-01-06T00:22:41.815Z,0.52
2023-01-06T00:25:09.890Z,0.54
2023-01-06T00:27:36.994Z,0.74
2023-01-06T00:30:04.471Z,0.97
2023-01-06T00:32:31.611Z,0.84
2023-01-06T00:34:58.667Z,0.98
2023-01-06T00:37:25.616Z,0.99
2023-01-06T00:39:52.456Z,1.08
2023-01-06T00:42:19.445Z,0.96
2023-01-06T00:44:46.430Z,0.96
2023-01-06T00:47:13.384Z,0.95
2023-01-06T00:49:40.496Z,0.95
2023-01-06T00:52:07.483Z,0.95
2023-01-06T00:54:34.351Z,1.06
2023-01-06T00:57:01.245Z,1.10
2023-01-06T00:59:28.107Z,1.05
2023-01-06T01:01:58.528Z,0.91
2023-01-06T01:04:26.542Z,0.97
2023-01-06T01:06:54.130Z,0.99
2023-01-06T01:09:30.129Z,0.62
2023-01-06T01:11:57.884Z,0.63
2023-01-06T01:14:24.824Z,0.80
2023-01-06T01:16:52.101Z,0.98
2023-01-06T01:19:20.042Z,1.02
2023-01-06T01:21:47.611Z,0.72
2023-01-06T01:24:14.687Z,-0.01
2023-01-06T01:26:41.885Z,-0.38
2023-01-06T01:29:14.820Z,-0.31
2023-01-06T01:31:42.951Z,-0.06
2023-01-06T01:34:11.776Z,0.23
2023-01-06T01:36:40.567Z,0.47
2023-01-06T01:39:07.676Z,0.53
2023-01-06T01:41:34.644Z,0.39
2023-01-06T01:44:04.570Z,0.22
2023-01-06T01:46:36.947Z,0.17
2023-01-06T01:49:26.653Z,0.42
2023-01-06T01:51:57.144Z,0.39
2023-01-06T01:54:28.875Z,0.53
2023-01-06T01:57:01.458Z,0.55
2023-01-06T01:59:32.592Z,0.53
2023-01-06T02:01:59.660Z,0.33
2023-01-06T02:04:28.698Z,0.54
2023-01-06T02:06:56.120Z,0.43
2023-01-06T02:09:36.189Z,0.44
2023-01-06T02:12:03.901Z,0.63
2023-01-06T02:14:30.825Z,0.74
2023-01-06T02:17:15.708Z,0.66
2023-01-06T02:20:42.224Z,0.28
2023-01-06T02:23:15.088Z,-0.33
2023-01-06T02:26:19.277Z,-0.78
2023-01-06T02:28:58.350Z,-0.97
2023-01-06T02:31:46.893Z,-0.90
2023-01-06T02:34:24.657Z,-0.79
2023-01-06T02:37:18.362Z,-0.53
2023-01-06T02:40:03.984Z,-0.28
2023-01-06T02:42:45.053Z,-0.24
2023-01-06T02:45:32.571Z,-0.03
2023-01-06T02:48:11.433Z,0.11
2023-01-06T02:50:54.327Z,0.14
2023-01-06T02:53:34.417Z,-0.10
2023-01-06T02:56:03.453Z,-0.53
2023-01-06T02:58:56.872Z,-0.91
2023-01-06T03:01:26.174Z,-0.97
2023-01-06T03:03:58.095Z,-0.76
2023-01-06T03:06:30.002Z,-0.89
2023-01-06T03:08:58.999Z,-0.95
2023-01-06T03:11:29.131Z,-1.25
2023-01-06T03:13:56.037Z,-1.25
2023-01-06T03:16:23.083Z,-1.21
2023-01-06T03:18:52.662Z,-0.89
2023-01-06T03:21:23.587Z,-0.62
2023-01-06T03:23:50.518Z,-0.40
2023-01-06T03:26:17.431Z,-0.35
2023-01-06T03:28:44.612Z,-0.31
2023-01-06T03:31:23.003Z,-0.16
2023-01-06T03:34:13.045Z,-0.12
2023-01-06T03:36:58.522Z,-0.06
2023-01-06T03:39:39.491Z,-0.54
2023-01-06T03:42:28.100Z,-0.96
2023-01-06T03:45:15.122Z,-1.25
2023-01-06T03:47:53.900Z,-1.00
2023-01-06T03:50:29.096Z,-0.74
2023-01-06T03:53:23.044Z,-0.43
2023-01-06T03:56:00.618Z,-1.07
2023-01-06T03:58:29.634Z,-1.07
2023-01-06T04:00:58.317Z,-0.71
2023-01-06T04:03:26.234Z,-0.74
2023-01-06T04:05:53.695Z,-1.34
2023-01-06T04:08:20.788Z,-1.31
2023-01-06T04:10:47.797Z,-0.84
2023-01-06T04:13:14.783Z,-0.85
2023-01-06T04:15:41.811Z,-0.94
2023-01-06T04:18:08.839Z,-1.04
2023-01-06T04:20:35.774Z,-1.04
2023-01-06T04:23:02.753Z,-0.82
2023-01-06T04:25:29.703Z,-0.63
2023-01-06T04:27:56.657Z,-0.47
2023-01-06T04:30:23.663Z,-0.59
2023-01-06T04:32:50.574Z,-0.70
2023-01-06T04:35:17.609Z,-0.62
2023-01-06T04:37:44.937Z,-0.38
2023-01-06T04:40:12.019Z,-0.23
2023-01-06T04:42:38.960Z,-0.83
2023-01-06T04:45:06.482Z,-0.78
2023-01-06T04:47:33.332Z,-0.94
2023-01-06T04:50:00.275Z,-1.12
2023-01-06T04:52:27.154Z,-0.94
2023-01-06T04:54:54.179Z,-0.72
2023-01-06T04:57:21.078Z,-0.51
2023-01-06T04:59:48.069Z,-0.40
2023-01-06T05:02:14.982Z,-0.34
2023-01-06T05:04:47.791Z,-0.33
2023-01-06T05:07:15.144Z,-1.01
2023-01-06T05:09:42.086Z,-1.13
2023-01-06T05:12:09.020Z,-0.70
2023-01-06T05:14:35.987Z,-0.61
2023-01-06T05:17:02.911Z,-0.92
2023-01-06T05:19:29.874Z,-0.72
2023-01-06T05:21:56.915Z,-0.46
2023-01-06T05:24:23.942Z,-0.71
2023-01-06T05:26:50.805Z,-0.86
2023-01-06T05:29:17.849Z,-0.88
2023-01-06T05:31:44.965Z,-0.84
2023-01-06T05:34:12.253Z,-0.87
2023-01-06T05:36:39.197Z,-0.87
2023-01-06T05:39:08.627Z,-0.80
2023-01-06T05:41:35.546Z,-0.55
2023-01-06T05:44:02.622Z,-0.26
2023-01-06T05:46:29.637Z,-0.22
2023-01-06T05:48:56.696Z,-0.13
2023-01-06T05:51:23.645Z,0.02
2023-01-06T05:53:50.576Z,-0.03
2023-01-06T05:56:19.781Z,0.15
2023-01-06T05:58:49.804Z,-0.10
2023-01-06T06:01:25.886Z,-0.11
2023-01-06T06:03:54.237Z,-0.11
2023-01-06T06:06:22.942Z,-0.13
2023-01-06T06:08:50.055Z,-0.17
2023-01-06T06:11:18.990Z,-0.13
2023-01-06T06:13:52.291Z,0.00
2023-01-06T06:16:21.598Z,0.29
2023-01-06T06:18:51.604Z,0.16
2023-01-06T06:21:24.030Z,-0.25
2023-01-06T06:23:53.541Z,-0.29
2023-01-06T06:26:20.402Z,-0.45
2023-01-06T06:28:47.446Z,-0.52
2023-01-06T06:31:17.792Z,-0.58
2023-01-06T06:33:45.048Z,-0.47
2023-01-06T06:36:12.593Z,-0.22
2023-01-06T06:38:39.811Z,0.08
2023-01-06T06:41:06.880Z,0.37
2023-01-06T06:43:34.348Z,0.54
2023-01-06T06:46:01.403Z,0.52
2023-01-06T06:48:29.345Z,-0.24
2023-01-06T06:51:00.689Z,-0.62
2023-01-06T06:53:27.873Z,-0.51
2023-01-06T06:55:56.154Z,-0.38
2023-01-06T06:58:23.328Z,-0.37
2023-01-06T07:00:50.471Z,0.07
2023-01-06T07:03:17.779Z,0.54
2023-01-06T07:05:46.419Z,0.72
2023-01-06T07:08:14.062Z,0.38
2023-01-06T07:10:41.011Z,-0.08
2023-01-06T07:13:08.734Z,-0.43
2023-01-06T07:15:35.685Z,-0.62
2023-01-06T07:18:06.437Z,-0.57
2023-01-06T07:20:35.648Z,-0.42
2023-01-06T07:23:03.417Z,-0.13
2023-01-06T07:25:30.683Z,0.15
2023-01-06T07:28:00.383Z,0.20
2023-01-06T07:30:28.118Z,0.24
2023-01-06T07:32:55.184Z,0.36
2023-01-06T07:35:22.056Z,0.33
2023-01-06T07:37:49.107Z,0.13
2023-01-06T07:40:16.138Z,0.18
2023-01-06T07:42:42.952Z,0.20
2023-01-06T07:45:10.543Z,0.23
2023-01-06T07:47:37.578Z,0.16
2023-01-06T07:50:05.755Z,0.37
2023-01-06T07:52:32.780Z,0.52
2023-01-06T07:54:59.749Z,0.46
2023-01-06T07:57:30.332Z,0.45
2023-01-06T07:59:57.746Z,0.39
2023-01-06T08:02:24.712Z,0.25
2023-01-06T08:04:51.709Z,0.27
2023-01-06T08:07:18.718Z,0.31
2023-01-06T08:09:45.731Z,0.45
2023-01-06T08:12:12.672Z,0.59
2023-01-06T08:14:39.702Z,0.70
2023-01-06T08:17:06.570Z,0.82
2023-01-06T08:19:33.706Z,1.01
2023-01-06T08:22:00.964Z,1.22
2023-01-06T08:24:28.449Z,1.28
2023-01-06T08:26:55.479Z,1.36
2023-01-06T08:29:22.538Z,1.30
2023-01-06T08:31:49.501Z,1.39
2023-01-06T08:34:16.383Z,1.43
2023-01-06T08:36:43.569Z,1.70
2023-01-06T08:39:11.774Z,1.70
2023-01-06T08:41:39.567Z,1.56
2023-01-06T08:44:06.845Z,1.60
2023-01-06T08:46:34.876Z,1.52
2023-01-06T08:49:01.932Z,1.33
2023-01-06T08:51:28.991Z,1.24
2023-01-06T08:53:56.582Z,1.26
2023-01-06T08:56:26.177Z,1.23
2023-01-06T08:58:58.082Z,1.19
2023-01-06T09:01:36.460Z,1.20
2023-01-06T09:04:06.570Z,1.22
2023-01-06T09:06:34.225Z,1.23
2023-01-06T09:09:02.014Z,1.20
2023-01-06T09:11:29.011Z,1.23
2023-01-06T09:13:56.191Z,1.12
2023-01-06T09:16:23.515Z,1.12
2023-01-06T09:18:50.543Z,1.19
2023-01-06T09:21:19.817Z,1.30
2023-01-06T09:23:47.147Z,1.45
2023-01-06T09:26:16.067Z,1.60
2023-01-06T09:28:43.501Z,1.68
2023-01-06T09:31:11.491Z,1.69
2023-01-06T09:33:38.635Z,1.69
2023-01-06T09:36:06.301Z,1.62
2023-01-06T09:38:33.216Z,1.61
2023-01-06T09:41:20.441Z,1.62
2023-01-06T09:43:54.695Z,1.61
2023-01-06T09:46:26.833Z,1.69
2023-01-06T09:49:09.729Z,1.75
2023-01-06T09:51:38.262Z,1.90
2023-01-06T09:54:28.735Z,1.99
2023-01-06T09:57:06.871Z,2.27
2023-01-06T09:59:51.114Z,2.31
2023-01-06T10:02:33.059Z,2.56
2023-01-06T10:05:00.160Z,2.54
2023-01-06T10:07:46.871Z,2.69
2023-01-06T10:10:43.086Z,2.81
2023-01-06T10:13:43.622Z,2.81
2023-01-06T10:16:25.144Z,2.98
2023-01-06T10:19:06.056Z,3.20
2023-01-06T10:21:33.043Z,3.32
2023-01-06T10:24:28.706Z,3.56
2023-01-06T10:27:02.318Z,3.25
2023-01-06T10:29:34.319Z,2.69
2023-01-06T10:32:03.687Z,2.33
2023-01-06T10:34:34.225Z,1.98
2023-01-06T10:37:17.963Z,1.87
2023-01-06T10:39:48.513Z,1.84
2023-01-06T10:42:23.509Z,1.67
2023-01-06T10:44:50.631Z,1.55
2023-01-06T10:47:29.608Z,1.45
2023-01-06T10:49:57.214Z,1.34
2023-01-06T10:52:25.586Z,1.32
2023-01-06T10:54:56.705Z,1.38
2023-01-06T10:57:30.378Z,1.35
2023-01-06T11:00:13.851Z,1.38
2023-01-06T11:02:48.745Z,1.30
2023-01-06T11:05:18.668Z,1.36
2023-01-06T11:07:55.231Z,1.45
2023-01-06T11:10:32.030Z,1.50
2023-01-06T11:13:00.640Z,1.50
2023-01-06T11:15:39.481Z,1.48
2023-01-06T11:18:22.681Z,1.56
2023-01-06T11:21:13.072Z,1.54
2023-01-06T11:23:42.255Z,1.63
2023-01-06T11:26:12.180Z,1.68
2023-01-06T11:28:45.208Z,1.69
2023-01-06T11:31:15.254Z,1.59
2023-01-06T11:33:55.469Z,1.58
2023-01-06T11:36:29.864Z,1.52
2023-01-06T11:39:12.676Z,1.50
2023-01-06T11:41:44.435Z,1.35
2023-01-06T11:44:36.476Z,1.37
2023-01-06T11:47:15.654Z,1.43
2023-01-06T11:49:49.096Z,1.50
2023-01-06T11:52:31.605Z,1.49
2023-01-06T11:55:19.944Z,1.56
2023-01-06T11:58:08.421Z,1.58
2023-01-06T12:00:56.523Z,1.62
2023-01-06T12:03:34.609Z,1.65
2023-01-06T12:06:13.517Z,1.70
2023-01-06T12:09:03.549Z,1.66
2023-01-06T12:11:45.862Z,1.76
2023-01-06T12:14:28.882Z,1.82
2023-01-06T12:17:20.823Z,1.89
2023-01-06T12:20:02.388Z,2.11
2023-01-06T12:22:43.068Z,2.28
2023-01-06T12:25:19.711Z,2.54
2023-01-06T12:27:52.150Z,2.74
2023-01-06T12:30:31.478Z,2.87
2023-01-06T12:33:06.058Z,2.93
2023-01-06T12:35:37.766Z,3.10
2023-01-06T12:38:28.051Z,3.21
2023-01-06T12:41:14.030Z,3.23
2023-01-06T12:43:50.352Z,3.19
2023-01-06T12:46:24.529Z,3.05
2023-01-06T12:48:57.331Z,2.51
2023-01-06T12:51:44.339Z,2.11
2023-01-06T12:54:26.293Z,2.23
2023-01-06T12:57:20.863Z,2.20
2023-01-06T13:00:00.987Z,1.90
2023-01-06T13:03:04.878Z,1.76
2023-01-06T13:05:45.496Z,1.63
2023-01-06T13:08:43.004Z,1.56
2023-01-06T13:12:00.781Z,1.56
2023-01-06T13:14:30.560Z,1.47
2023-01-06T13:17:28.996Z,1.41
2023-01-06T13:19:58.924Z,1.42
2023-01-06T13:22:25.942Z,1.47
2023-01-06T13:24:52.802Z,1.43
2023-01-06T13:27:40.631Z,1.49
2023-01-06T13:30:30.237Z,1.53
2023-01-06T13:33:28.334Z,1.58
2023-01-06T13:36:16.755Z,1.60
2023-01-06T13:39:09.411Z,1.52
2023-01-06T13:41:39.736Z,1.50
2023-01-06T13:44:16.744Z,1.48
2023-01-06T13:46:48.260Z,1.50
2023-01-06T13:49:15.732Z,1.59
2023-01-06T13:51:43.152Z,1.50
2023-01-06T13:54:40.874Z,1.38
2023-01-06T13:57:22.771Z,1.21
2023-01-06T14:00:05.280Z,1.18
2023-01-06T14:02:35.741Z,1.11
2023-01-06T14:05:08.112Z,1.18
2023-01-06T14:07:40.263Z,1.23
2023-01-06T14:10:28.607Z,1.40
2023-01-06T14:12:56.110Z,1.63
2023-01-06T14:15:35.559Z,1.90
2023-01-06T14:18:03.856Z,2.10
2023-01-06T14:20:38.293Z,2.18
2023-01-06T14:23:07.185Z,2.09
2023-01-06T14:25:42.304Z,1.99
2023-01-06T14:28:21.489Z,2.06
2023-01-06T14:30:50.019Z,2.03
2023-01-06T14:33:35.782Z,1.89
2023-01-06T14:36:14.067Z,1.97
2023-01-06T14:38:48.139Z,2.08
2023-01-06T14:41:27.582Z,2.19
2023-01-06T14:44:17.683Z,2.42
2023-01-06T14:46:51.691Z,2.64
2023-01-06T14:49:25.411Z,2.75
2023-01-06T14:51:56.075Z,2.79
2023-01-06T14:54:30.801Z,2.95
2023-01-06T14:57:02.385Z,3.05
2023-01-06T14:59:29.871Z,3.07
2023-01-06T15:02:16.852Z,3.18
2023-01-06T15:04:44.759Z,3.14
2023-01-06T15:07:21.125Z,2.97
2023-01-06T15:09:50.107Z,2.98
2023-01-06T15:12:28.951Z,2.99
2023-01-06T15:14:56.185Z,2.74
2023-01-06T15:17:23.864Z,2.87
2023-01-06T15:19:53.177Z,2.83
2023-01-06T15:22:24.072Z,2.91
2023-01-06T15:24:51.772Z,2.78
2023-01-06T15:27:19.690Z,2.47
2023-01-06T15:29:54.110Z,1.84
2023-01-06T15:32:24.570Z,1.53
2023-01-06T15:34:53.635Z,1.80
2023-01-06T15:37:26.531Z,2.02
2023-01-06T15:39:54.229Z,1.88
2023-01-06T15:42:27.233Z,1.75
2023-01-06T15:45:06.786Z,1.50
2023-01-06T15:47:40.415Z,1.32
2023-01-06T15:50:16.488Z,1.21
2023-01-06T15:52:53.687Z,1.49
2023-01-06T15:55:25.780Z,1.58
2023-01-06T15:58:03.910Z,1.63
2023-01-06T16:00:47.312Z,1.75
2023-01-06T16:03:20.934Z,1.89
2023-01-06T16:05:51.128Z,2.11
2023-01-06T16:08:28.376Z,2.15
2023-01-06T16:11:16.933Z,2.19
2023-01-06T16:13:58.355Z,2.25
2023-01-06T16:16:32.071Z,2.28
2023-01-06T16:19:07.566Z,2.32
2023-01-06T16:21:34.838Z,2.26
2023-01-06T16:24:04.890Z,2.30
2023-01-06T16:26:40.346Z,2.36
2023-01-06T16:29:28.941Z,2.27
2023-01-06T16:32:01.099Z,2.23
2023-01-06T16:34:32.082Z,2.29
2023-01-06T16:37:00.576Z,2.30
2023-01-06T16:39:28.732Z,2.30
2023-01-06T16:41:58.665Z,2.15
2023-01-06T16:44:26.419Z,2.07
2023-01-06T16:46:53.267Z,1.98
2023-01-06T16:49:21.649Z,1.96
2023-01-06T16:51:49.052Z,1.94
2023-01-06T16:54:17.449Z,1.88
2023-01-06T16:56:45.755Z,1.79
2023-01-06T16:59:17.753Z,1.74
2023-01-06T17:01:47.132Z,1.81
2023-01-06T17:04:15.272Z,1.83
2023-01-06T17:06:43.971Z,1.94
2023-01-06T17:09:22.526Z,2.00
2023-01-06T17:11:50.914Z,2.05
2023-01-06T17:14:20.778Z,2.05
2023-01-06T17:16:48.149Z,2.02
2023-01-06T17:19:26.816Z,2.10
2023-01-06T17:22:06.537Z,1.79
2023-01-06T17:24:35.170Z,1.46
2023-01-06T17:27:07.898Z,1.39
2023-01-06T17:29:37.260Z,1.61
2023-01-06T17:32:14.686Z,1.53
2023-01-06T17:34:41.629Z,1.50
2023-01-06T17:37:22.215Z,1.23
2023-01-06T17:39:49.817Z,1.20
2023-01-06T17:42:16.706Z,1.31
2023-01-06T17:44:46.475Z,1.49
2023-01-06T17:47:16.548Z,1.46
2023-01-06T17:50:31.625Z,1.54
2023-01-06T17:53:20.253Z,1.28
2023-01-06T17:55:49.934Z,0.92
2023-01-06T17:58:19.451Z,0.75
2023-01-06T18:00:46.440Z,0.11
2023-01-06T18:03:19.211Z,-0.19
2023-01-06T18:05:46.158Z,-0.06
2023-01-06T18:08:15.998Z,0.12
2023-01-06T18:10:51.332Z,0.28
2023-01-06T18:13:26.362Z,0.18
2023-01-06T18:15:57.243Z,0.27
2023-01-06T18:18:28.212Z,0.42
2023-01-06T18:21:23.546Z,0.34
2023-01-06T18:23:52.338Z,0.40
2023-01-06T18:26:28.386Z,0.44
2023-01-06T18:29:15.706Z,0.54
2023-01-06T18:31:42.779Z,0.58
2023-01-06T18:34:26.182Z,0.78
2023-01-06T18:36:54.289Z,0.91
2023-01-06T18:39:31.230Z,0.88
2023-01-06T18:42:31.529Z,0.98
2023-01-06T18:45:02.998Z,0.99
2023-01-06T18:47:31.006Z,0.89
2023-01-06T18:50:11.635Z,0.91
2023-01-06T18:52:48.459Z,1.01
2023-01-06T18:55:28.008Z,0.94
2023-01-06T18:57:59.235Z,0.83
2023-01-06T19:00:33.721Z,0.50
2023-01-06T19:03:23.836Z,0.43
2023-01-06T19:05:53.970Z,0.61
2023-01-06T19:08:27.143Z,0.08
2023-01-06T19:10:53.963Z,0.19
2023-01-06T19:13:28.806Z,0.48
2023-01-06T19:16:02.454Z,0.51
2023-01-06T19:18:34.052Z,0.45
2023-01-06T19:21:03.566Z,0.43
2023-01-06T19:23:32.241Z,0.67
2023-01-06T19:26:35.272Z,0.84
2023-01-06T19:29:06.692Z,1.07
2023-01-06T19:31:33.598Z,1.14
2023-01-06T19:34:02.543Z,0.95
2023-01-06T19:36:39.524Z,1.03
2023-01-06T19:39:23.373Z,1.11
2023-01-06T19:41:56.028Z,1.14
2023-01-06T19:44:32.024Z,1.19
2023-01-06T19:47:00.700Z,1.29
2023-01-06T19:49:38.652Z,1.30
2023-01-06T19:52:34.209Z,1.22
2023-01-06T19:55:22.103Z,1.30
2023-01-06T19:58:11.410Z,1.35
2023-01-06T20:00:49.970Z,1.35
2023-01-06T20:03:30.893Z,1.35
2023-01-06T20:05:57.759Z,1.34
2023-01-06T20:08:24.807Z,1.38
2023-01-06T20:10:51.830Z,1.38
2023-01-06T20:13:18.982Z,1.41
2023-01-06T20:15:45.855Z,0.81
2023-01-06T20:18:12.828Z,0.39
2023-01-06T20:20:39.949Z,0.24
2023-01-06T20:23:06.784Z,0.31
2023-01-06T20:25:33.807Z,0.39
2023-01-06T20:28:00.973Z,0.45
2023-01-06T20:30:27.901Z,0.56
2023-01-06T20:32:54.795Z,0.66
2023-01-06T20:35:21.822Z,0.70
2023-01-06T20:37:48.824Z,0.77
2023-01-06T20:40:15.757Z,0.87
2023-01-06T20:42:42.698Z,0.96
2023-01-06T20:45:10.715Z,0.79
2023-01-06T20:47:37.541Z,0.40
2023-01-06T20:50:05.499Z,0.14
2023-01-06T20:52:32.503Z,-0.12
2023-01-06T20:55:00.518Z,0.23
2023-01-06T20:57:27.376Z,0.47
2023-01-06T20:59:54.330Z,0.62
2023-01-06T21:02:21.393Z,0.69
2023-01-06T21:04:48.608Z,0.70
2023-01-06T21:07:15.506Z,0.71
2023-01-06T21:09:42.507Z,0.79
2023-01-06T21:12:09.539Z,0.80
2023-01-06T21:14:36.460Z,0.60
2023-01-06T21:17:03.447Z,0.60
2023-01-06T21:19:30.526Z,0.80
2023-01-06T21:21:59.555Z,0.82
2023-01-06T21:24:27.048Z,0.74
2023-01-06T21:26:54.091Z,0.70
2023-01-06T21:29:21.277Z,0.66
2023-01-06T21:31:48.254Z,0.59
2023-01-06T21:34:15.202Z,0.32
2023-01-06T21:36:42.066Z,-0.09
2023-01-06T21:39:09.002Z,-0.01
2023-01-06T21:41:36.103Z,0.04
2023-01-06T21:44:03.019Z,0.12
2023-01-06T21:46:29.936Z,-0.24
2023-01-06T21:48:56.905Z,-0.07
2023-01-06T21:51:24.123Z,0.18
2023-01-06T21:53:51.251Z,-0.46
2023-01-06T21:56:18.211Z,-0.52
2023-01-06T21:58:45.276Z,-0.52
2023-01-06T22:01:12.237Z,-0.26
2023-01-06T22:03:39.232Z,0.01
2023-01-06T22:06:06.536Z,0.10
2023-01-06T22:08:33.599Z,0.22
2023-01-06T22:11:00.613Z,-0.29
2023-01-06T22:13:29.133Z,-0.42
2023-01-06T22:15:56.142Z,-0.49
2023-01-06T22:18:23.299Z,-0.40
2023-01-06T22:20:50.847Z,-0.19
2023-01-06T22:23:21.133Z,-0.05
2023-01-06T22:25:48.088Z,0.13
2023-01-06T22:28:15.004Z,0.25
2023-01-06T22:30:41.991Z,0.33
2023-01-06T22:33:09.242Z,0.30
2023-01-06T22:35:36.507Z,0.14
2023-01-06T22:38:03.450Z,0.30
2023-01-06T22:40:30.331Z,-0.06
2023-01-06T22:42:57.219Z,-0.94
2023-01-06T22:45:24.197Z,-1.38
2023-01-06T22:47:51.184Z,-1.36
2023-01-06T22:50:18.036Z,-1.33
2023-01-06T22:52:44.989Z,-1.22
2023-01-06T22:55:11.974Z,-0.96
2023-01-06T22:57:39.037Z,-0.74
2023-01-06T23:00:15.607Z,-0.80
2023-01-06T23:02:43.160Z,-0.59
2023-01-06T23:05:11.027Z,-0.39
2023-01-06T23:07:39.649Z,-0.30
2023-01-06T23:10:07.582Z,-0.24
2023-01-06T23:12:38.797Z,-0.17
2023-01-06T23:15:06.661Z,-0.11
2023-01-06T23:17:33.867Z,-0.03
2023-01-06T23:20:00.848Z,-0.21
2023-01-06T23:22:27.730Z,-0.39
2023-01-06T23:24:54.711Z,-0.76
2023-01-06T23:27:21.597Z,-0.70
2023-01-06T23:29:48.572Z,-0.72
2023-01-06T23:32:15.543Z,-0.96
2023-01-06T23:34:42.438Z,-0.84
2023-01-06T23:37:09.400Z,-0.65
2023-01-06T23:39:36.312Z,-0.28
2023-01-06T23:42:05.932Z,-0.20
2023-01-06T23:44:32.838Z,-0.25
2023-01-06T23:46:59.701Z,-0.17
2023-01-06T23:49:26.646Z,-0.01
2023-01-06T23:51:53.504Z,0.05
2023-01-06T23:54:20.579Z,-0.11
2023-01-06T23:56:47.441Z,-0.21
2023-01-06T23:59:14.539Z,-0.29
